sensor_id;sensor_type;location;lat;lon;timestamp;P1;durP1;ratioP1;P2;durP2;ratioP2
60225;SDS011;46090;48.436;11.410;2023-07-13T00:01:30;8.55;;;2.67;;
60225;SDS011;46090;48.436;11.410;2023-07-13T00:03:58;4.97;;;2.08;;
60225;SDS011;46090;48.436;11.410;2023-07-13T00:06:26;5.82;;;2.38;;
60225;SDS011;46090;48.436;11.410;2023-07-13T00:08:56;9.07;;;2.58;;
60225;SDS011;46090;48.436;11.410;2023-07-13T00:11:23;6.90;;;2.40;;
60225;SDS011;46090;48.436;11.410;2023-07-13T00:13:50;5.25;;;2.30;;
60225;SDS011;46090;48.436;11.410;2023-07-13T00:16:17;5.22;;;2.38;;
60225;SDS011;46090;48.436;11.410;2023-07-13T00:18:45;6.80;;;2.58;;
60225;SDS011;46090;48.436;11.410;2023-07-13T00:21:12;7.85;;;2.42;;
60225;SDS011;46090;48.436;11.410;2023-07-13T00:23:40;6.35;;;2.75;;
60225;SDS011;46090;48.436;11.410;2023-07-13T00:26:08;7.45;;;2.70;;
60225;SDS011;46090;48.436;11.410;2023-07-13T00:28:37;6.30;;;2.67;;
60225;SDS011;46090;48.436;11.410;2023-07-13T00:31:05;8.48;;;3.03;;
60225;SDS011;46090;48.436;11.410;2023-07-13T00:33:35;4.90;;;2.50;;
60225;SDS011;46090;48.436;11.410;2023-07-13T00:36:02;7.97;;;2.75;;
60225;SDS011;46090;48.436;11.410;2023-07-13T00:38:29;13.50;;;3.20;;
60225;SDS011;46090;48.436;11.410;2023-07-13T00:40:56;7.40;;;3.03;;
60225;SDS011;46090;48.436;11.410;2023-07-13T00:43:23;7.93;;;3.42;;
60225;SDS011;46090;48.436;11.410;2023-07-13T00:48:24;10.65;;;2.78;;
60225;SDS011;46090;48.436;11.410;2023-07-13T00:50:53;11.23;;;3.42;;
60225;SDS011;46090;48.436;11.410;2023-07-13T00:53:22;7.70;;;3.30;;
60225;SDS011;46090;48.436;11.410;2023-07-13T00:55:49;11.10;;;3.78;;
60225;SDS011;46090;48.436;11.410;2023-07-13T00:58:17;7.20;;;3.50;;
60225;SDS011;46090;48.436;11.410;2023-07-13T01:00:44;6.82;;;2.90;;
60225;SDS011;46090;48.436;11.410;2023-07-13T01:03:13;11.13;;;3.40;;
60225;SDS011;46090;48.436;11.410;2023-07-13T01:05:40;7.82;;;2.90;;
60225;SDS011;46090;48.436;11.410;2023-07-13T01:08:07;8.68;;;2.88;;
60225;SDS011;46090;48.436;11.410;2023-07-13T01:10:34;9.30;;;3.35;;
60225;SDS011;46090;48.436;11.410;2023-07-13T01:13:06;9.70;;;2.92;;
60225;SDS011;46090;48.436;11.410;2023-07-13T01:18:10;7.93;;;3.15;;
60225;SDS011;46090;48.436;11.410;2023-07-13T01:20:39;6.68;;;2.95;;
60225;SDS011;46090;48.436;11.410;2023-07-13T01:23:06;5.97;;;2.75;;
60225;SDS011;46090;48.436;11.410;2023-07-13T01:25:37;7.32;;;2.90;;
60225;SDS011;46090;48.436;11.410;2023-07-13T01:28:05;8.27;;;3.15;;
60225;SDS011;46090;48.436;11.410;2023-07-13T01:30:33;9.25;;;2.80;;
60225;SDS011;46090;48.436;11.410;2023-07-13T01:33:01;8.13;;;3.03;;
60225;SDS011;46090;48.436;11.410;2023-07-13T01:35:28;7.10;;;2.90;;
60225;SDS011;46090;48.436;11.410;2023-07-13T01:37:55;8.13;;;2.90;;
60225;SDS011;46090;48.436;11.410;2023-07-13T01:40:23;9.25;;;3.10;;
60225;SDS011;46090;48.436;11.410;2023-07-13T01:42:50;8.15;;;3.17;;
60225;SDS011;46090;48.436;11.410;2023-07-13T01:45:19;8.20;;;3.22;;
60225;SDS011;46090;48.436;11.410;2023-07-13T01:47:46;7.80;;;2.90;;
60225;SDS011;46090;48.436;11.410;2023-07-13T01:50:13;8.88;;;2.92;;
60225;SDS011;46090;48.436;11.410;2023-07-13T01:52:40;8.77;;;2.83;;
60225;SDS011;46090;48.436;11.410;2023-07-13T01:55:07;9.23;;;3.47;;
60225;SDS011;46090;48.436;11.410;2023-07-13T01:57:34;9.68;;;3.20;;
60225;SDS011;46090;48.436;11.410;2023-07-13T02:00:03;13.25;;;3.38;;
60225;SDS011;46090;48.436;11.410;2023-07-13T02:02:40;10.95;;;3.15;;
60225;SDS011;46090;48.436;11.410;2023-07-13T02:05:12;9.35;;;2.90;;
60225;SDS011;46090;48.436;11.410;2023-07-13T02:07:40;8.30;;;3.22;;
60225;SDS011;46090;48.436;11.410;2023-07-13T02:10:08;10.05;;;2.95;;
60225;SDS011;46090;48.436;11.410;2023-07-13T02:12:35;6.63;;;3.10;;
60225;SDS011;46090;48.436;11.410;2023-07-13T02:15:03;8.18;;;3.17;;
60225;SDS011;46090;48.436;11.410;2023-07-13T02:17:30;7.82;;;3.33;;
60225;SDS011;46090;48.436;11.410;2023-07-13T02:19:58;11.75;;;3.35;;
60225;SDS011;46090;48.436;11.410;2023-07-13T02:22:24;10.20;;;3.80;;
60225;SDS011;46090;48.436;11.410;2023-07-13T02:24:51;9.88;;;3.20;;
60225;SDS011;46090;48.436;11.410;2023-07-13T02:27:18;8.65;;;3.42;;
60225;SDS011;46090;48.436;11.410;2023-07-13T02:29:45;15.07;;;3.70;;
60225;SDS011;46090;48.436;11.410;2023-07-13T02:32:12;9.55;;;3.70;;
60225;SDS011;46090;48.436;11.410;2023-07-13T02:34:41;14.52;;;3.90;;
60225;SDS011;46090;48.436;11.410;2023-07-13T02:37:08;8.10;;;3.97;;
60225;SDS011;46090;48.436;11.410;2023-07-13T02:39:35;8.55;;;3.63;;
60225;SDS011;46090;48.436;11.410;2023-07-13T02:42:02;15.30;;;4.30;;
60225;SDS011;46090;48.436;11.410;2023-07-13T02:44:29;9.38;;;3.50;;
60225;SDS011;46090;48.436;11.410;2023-07-13T02:46:56;8.25;;;3.28;;
60225;SDS011;46090;48.436;11.410;2023-07-13T02:49:23;12.93;;;4.10;;
60225;SDS011;46090;48.436;11.410;2023-07-13T02:51:50;6.60;;;3.60;;
60225;SDS011;46090;48.436;11.410;2023-07-13T02:54:17;7.55;;;3.72;;
60225;SDS011;46090;48.436;11.410;2023-07-13T02:56:44;9.80;;;3.97;;
60225;SDS011;46090;48.436;11.410;2023-07-13T02:59:11;11.38;;;4.38;;
60225;SDS011;46090;48.436;11.410;2023-07-13T03:01:38;8.55;;;4.18;;
60225;SDS011;46090;48.436;11.410;2023-07-13T03:04:05;8.88;;;4.15;;
60225;SDS011;46090;48.436;11.410;2023-07-13T03:06:34;9.10;;;4.10;;
60225;SDS011;46090;48.436;11.410;2023-07-13T03:09:02;10.02;;;4.15;;
60225;SDS011;46090;48.436;11.410;2023-07-13T03:11:32;11.80;;;4.30;;
60225;SDS011;46090;48.436;11.410;2023-07-13T03:14:18;14.18;;;4.60;;
60225;SDS011;46090;48.436;11.410;2023-07-13T03:16:46;12.00;;;4.25;;
60225;SDS011;46090;48.436;11.410;2023-07-13T03:19:12;14.75;;;4.57;;
60225;SDS011;46090;48.436;11.410;2023-07-13T03:21:42;16.70;;;4.70;;
60225;SDS011;46090;48.436;11.410;2023-07-13T03:24:09;10.52;;;4.30;;
60225;SDS011;46090;48.436;11.410;2023-07-13T03:26:36;11.43;;;4.85;;
60225;SDS011;46090;48.436;11.410;2023-07-13T03:29:03;9.43;;;4.78;;
60225;SDS011;46090;48.436;11.410;2023-07-13T03:31:33;9.05;;;4.28;;
60225;SDS011;46090;48.436;11.410;2023-07-13T03:34:01;9.38;;;4.55;;
60225;SDS011;46090;48.436;11.410;2023-07-13T03:36:29;10.20;;;4.05;;
60225;SDS011;46090;48.436;11.410;2023-07-13T03:39:00;9.95;;;4.20;;
60225;SDS011;46090;48.436;11.410;2023-07-13T03:41:52;10.80;;;4.18;;
60225;SDS011;46090;48.436;11.410;2023-07-13T03:44:19;10.07;;;4.28;;
60225;SDS011;46090;48.436;11.410;2023-07-13T03:46:51;10.35;;;4.68;;
60225;SDS011;46090;48.436;11.410;2023-07-13T03:49:18;12.35;;;3.97;;
60225;SDS011;46090;48.436;11.410;2023-07-13T03:51:44;14.05;;;4.28;;
60225;SDS011;46090;48.436;11.410;2023-07-13T03:54:11;10.98;;;4.25;;
60225;SDS011;46090;48.436;11.410;2023-07-13T03:56:38;9.38;;;3.63;;
60225;SDS011;46090;48.436;11.410;2023-07-13T03:59:06;11.63;;;4.35;;
60225;SDS011;46090;48.436;11.410;2023-07-13T04:01:33;11.30;;;3.90;;
60225;SDS011;46090;48.436;11.410;2023-07-13T04:04:00;8.55;;;3.72;;
60225;SDS011;46090;48.436;11.410;2023-07-13T04:06:30;7.45;;;3.60;;
60225;SDS011;46090;48.436;11.410;2023-07-13T04:08:58;14.88;;;4.63;;
60225;SDS011;46090;48.436;11.410;2023-07-13T04:11:28;13.38;;;4.15;;
60225;SDS011;46090;48.436;11.410;2023-07-13T04:13:58;8.18;;;3.90;;
60225;SDS011;46090;48.436;11.410;2023-07-13T04:16:25;8.98;;;3.60;;
60225;SDS011;46090;48.436;11.410;2023-07-13T04:18:52;10.30;;;3.95;;
60225;SDS011;46090;48.436;11.410;2023-07-13T04:21:26;6.05;;;2.67;;
60225;SDS011;46090;48.436;11.410;2023-07-13T04:23:54;10.75;;;3.63;;
60225;SDS011;46090;48.436;11.410;2023-07-13T04:26:21;10.40;;;3.10;;
60225;SDS011;46090;48.436;11.410;2023-07-13T04:28:49;12.18;;;3.40;;
60225;SDS011;46090;48.436;11.410;2023-07-13T04:31:17;10.75;;;3.10;;
60225;SDS011;46090;48.436;11.410;2023-07-13T04:33:44;12.20;;;3.78;;
60225;SDS011;46090;48.436;11.410;2023-07-13T04:36:14;6.88;;;3.22;;
60225;SDS011;46090;48.436;11.410;2023-07-13T04:38:41;9.40;;;2.83;;
60225;SDS011;46090;48.436;11.410;2023-07-13T04:41:08;10.95;;;3.85;;
60225;SDS011;46090;48.436;11.410;2023-07-13T04:43:35;8.20;;;2.72;;
60225;SDS011;46090;48.436;11.410;2023-07-13T04:46:09;12.95;;;3.13;;
60225;SDS011;46090;48.436;11.410;2023-07-13T04:48:38;7.03;;;3.45;;
60225;SDS011;46090;48.436;11.410;2023-07-13T04:51:05;7.75;;;3.10;;
60225;SDS011;46090;48.436;11.410;2023-07-13T04:53:32;7.95;;;3.22;;
60225;SDS011;46090;48.436;11.410;2023-07-13T04:56:01;6.78;;;3.15;;
60225;SDS011;46090;48.436;11.410;2023-07-13T04:58:28;6.63;;;3.13;;
60225;SDS011;46090;48.436;11.410;2023-07-13T05:01:02;6.60;;;2.70;;
60225;SDS011;46090;48.436;11.410;2023-07-13T05:03:30;7.18;;;3.00;;
60225;SDS011;46090;48.436;11.410;2023-07-13T05:05:59;9.02;;;3.22;;
60225;SDS011;46090;48.436;11.410;2023-07-13T05:08:27;8.30;;;2.80;;
60225;SDS011;46090;48.436;11.410;2023-07-13T05:10:54;10.40;;;2.50;;
60225;SDS011;46090;48.436;11.410;2023-07-13T05:13:21;7.95;;;2.78;;
60225;SDS011;46090;48.436;11.410;2023-07-13T05:15:55;10.23;;;3.00;;
60225;SDS011;46090;48.436;11.410;2023-07-13T05:18:23;10.13;;;2.35;;
60225;SDS011;46090;48.436;11.410;2023-07-13T05:21:00;6.82;;;2.50;;
60225;SDS011;46090;48.436;11.410;2023-07-13T05:23:28;6.68;;;2.53;;
60225;SDS011;46090;48.436;11.410;2023-07-13T05:25:55;5.80;;;2.47;;
60225;SDS011;46090;48.436;11.410;2023-07-13T05:28:22;9.48;;;2.53;;
60225;SDS011;46090;48.436;11.410;2023-07-13T05:30:49;7.40;;;2.63;;
60225;SDS011;46090;48.436;11.410;2023-07-13T05:33:17;7.57;;;1.67;;
60225;SDS011;46090;48.436;11.410;2023-07-13T05:35:43;6.05;;;2.15;;
60225;SDS011;46090;48.436;11.410;2023-07-13T05:38:10;5.93;;;2.20;;
60225;SDS011;46090;48.436;11.410;2023-07-13T05:40:37;7.75;;;2.20;;
60225;SDS011;46090;48.436;11.410;2023-07-13T05:43:04;7.30;;;2.10;;
60225;SDS011;46090;48.436;11.410;2023-07-13T05:45:30;7.40;;;1.73;;
60225;SDS011;46090;48.436;11.410;2023-07-13T05:47:57;4.63;;;1.75;;
60225;SDS011;46090;48.436;11.410;2023-07-13T05:50:25;7.57;;;2.03;;
60225;SDS011;46090;48.436;11.410;2023-07-13T05:52:52;8.25;;;2.00;;
60225;SDS011;46090;48.436;11.410;2023-07-13T05:55:19;6.15;;;2.35;;
60225;SDS011;46090;48.436;11.410;2023-07-13T05:57:48;4.97;;;1.70;;
60225;SDS011;46090;48.436;11.410;2023-07-13T06:00:15;7.38;;;1.95;;
60225;SDS011;46090;48.436;11.410;2023-07-13T06:02:42;7.38;;;2.03;;
60225;SDS011;46090;48.436;11.410;2023-07-13T06:05:09;7.07;;;1.38;;
60225;SDS011;46090;48.436;11.410;2023-07-13T06:07:36;5.75;;;1.40;;
60225;SDS011;46090;48.436;11.410;2023-07-13T06:10:02;6.90;;;1.80;;
60225;SDS011;46090;48.436;11.410;2023-07-13T06:12:29;5.85;;;1.67;;
60225;SDS011;46090;48.436;11.410;2023-07-13T06:14:56;5.10;;;1.60;;
60225;SDS011;46090;48.436;11.410;2023-07-13T06:17:23;4.50;;;1.60;;
60225;SDS011;46090;48.436;11.410;2023-07-13T06:19:50;7.35;;;1.75;;
60225;SDS011;46090;48.436;11.410;2023-07-13T06:22:17;7.57;;;1.85;;
60225;SDS011;46090;48.436;11.410;2023-07-13T06:24:44;4.35;;;1.50;;
60225;SDS011;46090;48.436;11.410;2023-07-13T06:27:10;5.35;;;1.63;;
60225;SDS011;46090;48.436;11.410;2023-07-13T06:29:37;6.45;;;1.60;;
60225;SDS011;46090;48.436;11.410;2023-07-13T06:32:04;6.63;;;1.63;;
60225;SDS011;46090;48.436;11.410;2023-07-13T06:34:31;5.15;;;1.80;;
60225;SDS011;46090;48.436;11.410;2023-07-13T06:36:58;4.88;;;1.40;;
60225;SDS011;46090;48.436;11.410;2023-07-13T06:39:24;8.57;;;1.45;;
60225;SDS011;46090;48.436;11.410;2023-07-13T06:41:51;6.78;;;1.25;;
60225;SDS011;46090;48.436;11.410;2023-07-13T06:44:18;4.38;;;1.23;;
60225;SDS011;46090;48.436;11.410;2023-07-13T06:46:44;4.18;;;1.38;;
60225;SDS011;46090;48.436;11.410;2023-07-13T06:49:11;6.40;;;1.30;;
60225;SDS011;46090;48.436;11.410;2023-07-13T06:51:38;3.38;;;1.00;;
60225;SDS011;46090;48.436;11.410;2023-07-13T06:54:05;3.05;;;0.98;;
60225;SDS011;46090;48.436;11.410;2023-07-13T06:56:32;9.20;;;1.42;;
60225;SDS011;46090;48.436;11.410;2023-07-13T06:58:58;7.90;;;1.23;;
60225;SDS011;46090;48.436;11.410;2023-07-13T07:01:25;4.30;;;1.15;;
60225;SDS011;46090;48.436;11.410;2023-07-13T07:03:52;2.90;;;0.93;;
60225;SDS011;46090;48.436;11.410;2023-07-13T07:06:20;4.30;;;0.90;;
60225;SDS011;46090;48.436;11.410;2023-07-13T07:08:50;6.18;;;1.27;;
60225;SDS011;46090;48.436;11.410;2023-07-13T07:11:18;4.30;;;1.10;;
60225;SDS011;46090;48.436;11.410;2023-07-13T07:13:49;2.70;;;0.90;;
60225;SDS011;46090;48.436;11.410;2023-07-13T07:16:16;6.72;;;1.20;;
60225;SDS011;46090;48.436;11.410;2023-07-13T07:18:44;4.70;;;0.85;;
60225;SDS011;46090;48.436;11.410;2023-07-13T07:21:11;8.05;;;1.33;;
60225;SDS011;46090;48.436;11.410;2023-07-13T07:23:38;3.72;;;1.10;;
60225;SDS011;46090;48.436;11.410;2023-07-13T07:26:05;3.20;;;0.80;;
60225;SDS011;46090;48.436;11.410;2023-07-13T07:28:32;4.43;;;1.08;;
60225;SDS011;46090;48.436;11.410;2023-07-13T07:31:01;4.55;;;1.02;;
60225;SDS011;46090;48.436;11.410;2023-07-13T07:33:32;4.25;;;1.27;;
60225;SDS011;46090;48.436;11.410;2023-07-13T07:36:00;3.70;;;1.20;;
60225;SDS011;46090;48.436;11.410;2023-07-13T07:38:30;2.95;;;1.15;;
60225;SDS011;46090;48.436;11.410;2023-07-13T07:40:57;4.13;;;0.80;;
60225;SDS011;46090;48.436;11.410;2023-07-13T07:43:27;3.70;;;1.25;;
60225;SDS011;46090;48.436;11.410;2023-07-13T07:45:54;2.95;;;0.93;;
60225;SDS011;46090;48.436;11.410;2023-07-13T07:48:20;3.55;;;1.00;;
60225;SDS011;46090;48.436;11.410;2023-07-13T07:50:47;2.22;;;0.80;;
60225;SDS011;46090;48.436;11.410;2023-07-13T07:53:14;3.38;;;1.00;;
60225;SDS011;46090;48.436;11.410;2023-07-13T07:55:40;6.25;;;1.13;;
60225;SDS011;46090;48.436;11.410;2023-07-13T07:58:27;5.25;;;1.20;;
60225;SDS011;46090;48.436;11.410;2023-07-13T08:01:06;4.15;;;0.77;;
60225;SDS011;46090;48.436;11.410;2023-07-13T08:03:36;4.10;;;1.10;;
60225;SDS011;46090;48.436;11.410;2023-07-13T08:06:06;6.03;;;1.02;;
60225;SDS011;46090;48.436;11.410;2023-07-13T08:08:35;3.28;;;1.10;;
60225;SDS011;46090;48.436;11.410;2023-07-13T08:11:04;4.43;;;1.17;;
60225;SDS011;46090;48.436;11.410;2023-07-13T08:13:52;7.22;;;1.63;;
60225;SDS011;46090;48.436;11.410;2023-07-13T08:16:21;4.97;;;0.98;;
60225;SDS011;46090;48.436;11.410;2023-07-13T08:18:48;3.65;;;1.00;;
60225;SDS011;46090;48.436;11.410;2023-07-13T08:21:15;4.32;;;0.95;;
60225;SDS011;46090;48.436;11.410;2023-07-13T08:23:42;4.68;;;1.00;;
60225;SDS011;46090;48.436;11.410;2023-07-13T08:26:09;4.30;;;1.00;;
60225;SDS011;46090;48.436;11.410;2023-07-13T08:28:36;4.70;;;0.80;;
60225;SDS011;46090;48.436;11.410;2023-07-13T08:31:03;4.80;;;0.98;;
60225;SDS011;46090;48.436;11.410;2023-07-13T08:33:31;4.93;;;1.05;;
60225;SDS011;46090;48.436;11.410;2023-07-13T08:35:58;4.43;;;0.90;;
60225;SDS011;46090;48.436;11.410;2023-07-13T08:38:24;5.90;;;1.45;;
60225;SDS011;46090;48.436;11.410;2023-07-13T08:40:52;4.10;;;0.63;;
60225;SDS011;46090;48.436;11.410;2023-07-13T08:43:34;4.72;;;0.90;;
60225;SDS011;46090;48.436;11.410;2023-07-13T08:46:05;2.47;;;0.77;;
60225;SDS011;46090;48.436;11.410;2023-07-13T08:48:53;3.78;;;0.77;;
60225;SDS011;46090;48.436;11.410;2023-07-13T08:54:20;3.55;;;0.73;;
60225;SDS011;46090;48.436;11.410;2023-07-13T08:56:50;5.43;;;0.82;;
60225;SDS011;46090;48.436;11.410;2023-07-13T08:59:20;3.67;;;0.70;;
60225;SDS011;46090;48.436;11.410;2023-07-13T09:04:28;3.35;;;0.60;;
60225;SDS011;46090;48.436;11.410;2023-07-13T09:07:11;2.92;;;0.82;;
60225;SDS011;46090;48.436;11.410;2023-07-13T09:15:24;3.50;;;1.05;;
60225;SDS011;46090;48.436;11.410;2023-07-13T09:17:53;2.47;;;0.70;;
60225;SDS011;46090;48.436;11.410;2023-07-13T09:20:26;6.88;;;1.20;;
60225;SDS011;46090;48.436;11.410;2023-07-13T09:22:59;4.25;;;0.85;;
60225;SDS011;46090;48.436;11.410;2023-07-13T09:25:30;5.65;;;0.70;;
60225;SDS011;46090;48.436;11.410;2023-07-13T09:28:41;2.83;;;0.93;;
60225;SDS011;46090;48.436;11.410;2023-07-13T09:33:48;7.55;;;0.70;;
60225;SDS011;46090;48.436;11.410;2023-07-13T09:44:11;5.10;;;0.82;;
60225;SDS011;46090;48.436;11.410;2023-07-13T09:46:44;2.25;;;0.50;;
60225;SDS011;46090;48.436;11.410;2023-07-13T09:49:25;7.28;;;0.90;;
60225;SDS011;46090;48.436;11.410;2023-07-13T09:52:04;4.07;;;0.85;;
60225;SDS011;46090;48.436;11.410;2023-07-13T09:54:33;15.77;;;1.38;;
60225;SDS011;46090;48.436;11.410;2023-07-13T09:57:03;3.67;;;0.98;;
60225;SDS011;46090;48.436;11.410;2023-07-13T09:59:39;4.72;;;0.82;;
60225;SDS011;46090;48.436;11.410;2023-07-13T10:02:27;5.55;;;0.70;;
60225;SDS011;46090;48.436;11.410;2023-07-13T10:05:03;2.78;;;0.80;;
60225;SDS011;46090;48.436;11.410;2023-07-13T10:07:32;8.02;;;0.98;;
60225;SDS011;46090;48.436;11.410;2023-07-13T10:10:00;4.38;;;0.95;;
60225;SDS011;46090;48.436;11.410;2023-07-13T10:12:29;4.88;;;0.93;;
60225;SDS011;46090;48.436;11.410;2023-07-13T10:14:57;3.10;;;0.82;;
60225;SDS011;46090;48.436;11.410;2023-07-13T10:17:45;3.47;;;0.60;;
60225;SDS011;46090;48.436;11.410;2023-07-13T10:20:12;2.95;;;0.60;;
60225;SDS011;46090;48.436;11.410;2023-07-13T10:25:31;2.13;;;0.50;;
60225;SDS011;46090;48.436;11.410;2023-07-13T10:28:25;2.80;;;0.65;;
60225;SDS011;46090;48.436;11.410;2023-07-13T10:30:53;2.20;;;0.30;;
60225;SDS011;46090;48.436;11.410;2023-07-13T10:33:22;3.20;;;0.60;;
60225;SDS011;46090;48.436;11.410;2023-07-13T10:35:49;4.10;;;0.60;;
60225;SDS011;46090;48.436;11.410;2023-07-13T10:38:19;14.25;;;0.88;;
60225;SDS011;46090;48.436;11.410;2023-07-13T10:43:26;2.80;;;0.52;;
60225;SDS011;46090;48.436;11.410;2023-07-13T10:45:54;1.77;;;0.40;;
60225;SDS011;46090;48.436;11.410;2023-07-13T10:48:21;2.90;;;0.50;;
60225;SDS011;46090;48.436;11.410;2023-07-13T10:50:50;3.13;;;0.60;;
60225;SDS011;46090;48.436;11.410;2023-07-13T10:53:29;2.05;;;0.75;;
60225;SDS011;46090;48.436;11.410;2023-07-13T10:55:58;3.10;;;0.50;;
60225;SDS011;46090;48.436;11.410;2023-07-13T10:58:36;3.75;;;0.60;;
60225;SDS011;46090;48.436;11.410;2023-07-13T11:01:14;5.35;;;0.68;;
60225;SDS011;46090;48.436;11.410;2023-07-13T11:03:49;2.22;;;0.47;;
60225;SDS011;46090;48.436;11.410;2023-07-13T11:14:04;5.55;;;0.60;;
60225;SDS011;46090;48.436;11.410;2023-07-13T11:16:44;5.60;;;0.50;;
60225;SDS011;46090;48.436;11.410;2023-07-13T11:27:27;3.40;;;0.57;;
60225;SDS011;46090;48.436;11.410;2023-07-13T11:30:22;2.53;;;0.57;;
60225;SDS011;46090;48.436;11.410;2023-07-13T11:32:52;4.63;;;0.63;;
60225;SDS011;46090;48.436;11.410;2023-07-13T11:35:36;2.92;;;0.75;;
60225;SDS011;46090;48.436;11.410;2023-07-13T11:41:18;3.35;;;0.50;;
60225;SDS011;46090;48.436;11.410;2023-07-13T11:43:51;2.33;;;0.50;;
60225;SDS011;46090;48.436;11.410;2023-07-13T11:48:48;3.25;;;0.50;;
60225;SDS011;46090;48.436;11.410;2023-07-13T11:51:19;2.50;;;0.60;;
60225;SDS011;46090;48.436;11.410;2023-07-13T11:53:54;3.03;;;0.60;;
60225;SDS011;46090;48.436;11.410;2023-07-13T11:56:24;3.53;;;0.52;;
60225;SDS011;46090;48.436;11.410;2023-07-13T11:58:53;3.38;;;0.45;;
60225;SDS011;46090;48.436;11.410;2023-07-13T12:01:26;3.15;;;0.60;;
60225;SDS011;46090;48.436;11.410;2023-07-13T12:04:03;4.65;;;0.65;;
60225;SDS011;46090;48.436;11.410;2023-07-13T12:06:32;2.22;;;0.50;;
60225;SDS011;46090;48.436;11.410;2023-07-13T12:09:03;3.40;;;0.55;;
60225;SDS011;46090;48.436;11.410;2023-07-13T12:11:35;3.13;;;0.80;;
60225;SDS011;46090;48.436;11.410;2023-07-13T12:14:17;3.05;;;0.73;;
60225;SDS011;46090;48.436;11.410;2023-07-13T12:16:45;2.42;;;0.57;;
60225;SDS011;46090;48.436;11.410;2023-07-13T12:19:23;2.80;;;0.80;;
60225;SDS011;46090;48.436;11.410;2023-07-13T12:21:53;3.92;;;0.77;;
60225;SDS011;46090;48.436;11.410;2023-07-13T12:24:22;2.95;;;0.50;;
60225;SDS011;46090;48.436;11.410;2023-07-13T12:26:54;2.05;;;0.52;;
60225;SDS011;46090;48.436;11.410;2023-07-13T12:29:26;3.17;;;0.70;;
60225;SDS011;46090;48.436;11.410;2023-07-13T12:31:53;2.97;;;0.50;;
60225;SDS011;46090;48.436;11.410;2023-07-13T12:34:21;3.03;;;1.02;;
60225;SDS011;46090;48.436;11.410;2023-07-13T12:39:19;2.75;;;0.70;;
60225;SDS011;46090;48.436;11.410;2023-07-13T12:41:47;3.80;;;0.70;;
60225;SDS011;46090;48.436;11.410;2023-07-13T12:44:15;4.53;;;0.40;;
60225;SDS011;46090;48.436;11.410;2023-07-13T12:46:52;4.47;;;0.60;;
60225;SDS011;46090;48.436;11.410;2023-07-13T12:49:24;2.95;;;0.50;;
60225;SDS011;46090;48.436;11.410;2023-07-13T12:51:56;2.83;;;0.40;;
60225;SDS011;46090;48.436;11.410;2023-07-13T12:54:26;3.97;;;0.70;;
60225;SDS011;46090;48.436;11.410;2023-07-13T12:56:54;3.83;;;0.70;;
60225;SDS011;46090;48.436;11.410;2023-07-13T12:59:25;3.42;;;0.60;;
60225;SDS011;46090;48.436;11.410;2023-07-13T13:01:56;2.15;;;0.50;;
60225;SDS011;46090;48.436;11.410;2023-07-13T13:04:22;2.63;;;0.65;;
60225;SDS011;46090;48.436;11.410;2023-07-13T13:06:59;2.33;;;0.60;;
60225;SDS011;46090;48.436;11.410;2023-07-13T13:09:27;2.72;;;0.85;;
60225;SDS011;46090;48.436;11.410;2023-07-13T13:11:54;2.63;;;0.68;;
60225;SDS011;46090;48.436;11.410;2023-07-13T13:14:21;3.13;;;0.73;;
60225;SDS011;46090;48.436;11.410;2023-07-13T13:16:50;2.38;;;0.77;;
60225;SDS011;46090;48.436;11.410;2023-07-13T13:19:19;3.88;;;0.68;;
60225;SDS011;46090;48.436;11.410;2023-07-13T13:21:51;3.10;;;0.98;;
60225;SDS011;46090;48.436;11.410;2023-07-13T13:24:21;2.55;;;0.60;;
60225;SDS011;46090;48.436;11.410;2023-07-13T13:26:50;3.72;;;0.65;;
60225;SDS011;46090;48.436;11.410;2023-07-13T13:29:18;6.22;;;0.75;;
60225;SDS011;46090;48.436;11.410;2023-07-13T13:31:46;5.32;;;0.95;;
60225;SDS011;46090;48.436;11.410;2023-07-13T13:34:14;2.97;;;0.60;;
60225;SDS011;46090;48.436;11.410;2023-07-13T13:36:41;3.90;;;0.82;;
60225;SDS011;46090;48.436;11.410;2023-07-13T13:39:19;2.95;;;0.82;;
60225;SDS011;46090;48.436;11.410;2023-07-13T13:42:03;4.32;;;0.60;;
60225;SDS011;46090;48.436;11.410;2023-07-13T13:44:31;3.70;;;0.65;;
60225;SDS011;46090;48.436;11.410;2023-07-13T13:46:57;3.30;;;0.80;;
60225;SDS011;46090;48.436;11.410;2023-07-13T13:49:25;1.52;;;0.57;;
60225;SDS011;46090;48.436;11.410;2023-07-13T13:51:53;1.90;;;0.50;;
60225;SDS011;46090;48.436;11.410;2023-07-13T13:54:20;3.08;;;0.70;;
60225;SDS011;46090;48.436;11.410;2023-07-13T13:56:49;3.63;;;0.60;;
60225;SDS011;46090;48.436;11.410;2023-07-13T13:59:17;5.88;;;0.80;;
60225;SDS011;46090;48.436;11.410;2023-07-13T14:01:44;2.42;;;0.85;;
60225;SDS011;46090;48.436;11.410;2023-07-13T14:04:18;3.83;;;0.60;;
60225;SDS011;46090;48.436;11.410;2023-07-13T14:06:46;2.50;;;0.52;;
60225;SDS011;46090;48.436;11.410;2023-07-13T14:09:14;2.90;;;0.50;;
60225;SDS011;46090;48.436;11.410;2023-07-13T14:11:42;3.15;;;0.60;;
60225;SDS011;46090;48.436;11.410;2023-07-13T14:14:12;2.47;;;0.40;;
60225;SDS011;46090;48.436;11.410;2023-07-13T14:16:44;2.72;;;0.70;;
60225;SDS011;46090;48.436;11.410;2023-07-13T14:19:13;2.22;;;0.50;;
60225;SDS011;46090;48.436;11.410;2023-07-13T14:21:41;3.65;;;0.70;;
60225;SDS011;46090;48.436;11.410;2023-07-13T14:24:08;2.78;;;0.40;;
60225;SDS011;46090;48.436;11.410;2023-07-13T14:26:36;2.33;;;0.57;;
60225;SDS011;46090;48.436;11.410;2023-07-13T14:29:05;2.45;;;0.50;;
60225;SDS011;46090;48.436;11.410;2023-07-13T14:31:37;2.80;;;0.57;;
60225;SDS011;46090;48.436;11.410;2023-07-13T14:34:03;1.90;;;0.70;;
60225;SDS011;46090;48.436;11.410;2023-07-13T14:36:31;3.28;;;0.70;;
60225;SDS011;46090;48.436;11.410;2023-07-13T14:39:01;7.50;;;0.73;;
60225;SDS011;46090;48.436;11.410;2023-07-13T14:41:37;2.65;;;0.70;;
60225;SDS011;46090;48.436;11.410;2023-07-13T14:44:11;3.78;;;0.77;;
60225;SDS011;46090;48.436;11.410;2023-07-13T14:46:43;3.35;;;0.60;;
60225;SDS011;46090;48.436;11.410;2023-07-13T14:49:44;2.47;;;0.60;;
60225;SDS011;46090;48.436;11.410;2023-07-13T14:52:12;3.10;;;0.65;;
60225;SDS011;46090;48.436;11.410;2023-07-13T14:54:46;3.95;;;0.50;;
60225;SDS011;46090;48.436;11.410;2023-07-13T14:57:14;3.15;;;0.50;;
60225;SDS011;46090;48.436;11.410;2023-07-13T14:59:42;3.95;;;0.70;;
60225;SDS011;46090;48.436;11.410;2023-07-13T15:02:16;2.08;;;0.50;;
60225;SDS011;46090;48.436;11.410;2023-07-13T15:04:52;2.15;;;0.65;;
60225;SDS011;46090;48.436;11.410;2023-07-13T15:07:21;3.75;;;0.40;;
60225;SDS011;46090;48.436;11.410;2023-07-13T15:09:49;2.38;;;0.50;;
60225;SDS011;46090;48.436;11.410;2023-07-13T15:12:17;4.30;;;0.50;;
60225;SDS011;46090;48.436;11.410;2023-07-13T15:14:44;4.05;;;0.52;;
60225;SDS011;46090;48.436;11.410;2023-07-13T15:22:43;7.03;;;0.70;;
60225;SDS011;46090;48.436;11.410;2023-07-13T15:25:16;3.08;;;0.50;;
60225;SDS011;46090;48.436;11.410;2023-07-13T15:27:51;4.30;;;0.75;;
60225;SDS011;46090;48.436;11.410;2023-07-13T15:30:19;1.42;;;0.40;;
60225;SDS011;46090;48.436;11.410;2023-07-13T15:32:46;3.03;;;0.50;;
60225;SDS011;46090;48.436;11.410;2023-07-13T15:35:17;2.42;;;0.60;;
60225;SDS011;46090;48.436;11.410;2023-07-13T15:37:47;1.55;;;0.30;;
60225;SDS011;46090;48.436;11.410;2023-07-13T15:40:14;1.85;;;0.50;;
60225;SDS011;46090;48.436;11.410;2023-07-13T15:42:41;2.38;;;0.50;;
60225;SDS011;46090;48.436;11.410;2023-07-13T15:45:18;1.80;;;0.43;;
60225;SDS011;46090;48.436;11.410;2023-07-13T15:47:46;2.58;;;0.70;;
60225;SDS011;46090;48.436;11.410;2023-07-13T15:50:20;1.75;;;0.32;;